sensor_id;sensor_type;location;lat;lon;timestamp;P1;durP1;ratioP1;P2;durP2;ratioP2
59263;SDS011;45030;42.720;23.344;2023-05-10T00:01:25;8.10;;;4.97;;
59263;SDS011;45030;42.720;23.344;2023-05-10T00:03:50;7.90;;;4.68;;
59263;SDS011;45030;42.720;23.344;2023-05-10T00:06:16;8.43;;;6.43;;
59263;SDS011;45030;42.720;23.344;2023-05-10T00:08:41;8.95;;;6.50;;
59263;SDS011;45030;42.720;23.344;2023-05-10T00:11:06;9.90;;;7.50;;
59263;SDS011;45030;42.720;23.344;2023-05-10T00:13:31;10.68;;;6.43;;
59263;SDS011;45030;42.720;23.344;2023-05-10T00:15:57;10.63;;;6.97;;
59263;SDS011;45030;42.720;23.344;2023-05-10T00:18:22;9.10;;;6.20;;
59263;SDS011;45030;42.720;23.344;2023-05-10T00:20:47;10.05;;;6.45;;
59263;SDS011;45030;42.720;23.344;2023-05-10T00:23:13;9.90;;;6.47;;
59263;SDS011;45030;42.720;23.344;2023-05-10T00:25:39;10.25;;;6.40;;
59263;SDS011;45030;42.720;23.344;2023-05-10T00:28:04;10.82;;;6.07;;
59263;SDS011;45030;42.720;23.344;2023-05-10T00:30:29;6.75;;;4.72;;
59263;SDS011;45030;42.720;23.344;2023-05-10T00:32:55;8.13;;;5.60;;
59263;SDS011;45030;42.720;23.344;2023-05-10T00:35:20;8.20;;;5.32;;
59263;SDS011;45030;42.720;23.344;2023-05-10T00:37:46;8.05;;;5.90;;
59263;SDS011;45030;42.720;23.344;2023-05-10T00:40:11;10.38;;;6.63;;
59263;SDS011;45030;42.720;23.344;2023-05-10T00:42:37;9.55;;;6.70;;
59263;SDS011;45030;42.720;23.344;2023-05-10T00:45:02;9.40;;;6.75;;
59263;SDS011;45030;42.720;23.344;2023-05-10T00:47:27;12.30;;;8.13;;
59263;SDS011;45030;42.720;23.344;2023-05-10T00:49:53;10.63;;;7.38;;
59263;SDS011;45030;42.720;23.344;2023-05-10T00:52:19;13.60;;;9.73;;
59263;SDS011;45030;42.720;23.344;2023-05-10T00:54:44;13.32;;;8.18;;
59263;SDS011;45030;42.720;23.344;2023-05-10T00:57:09;13.20;;;8.80;;
59263;SDS011;45030;42.720;23.344;2023-05-10T00:59:35;11.07;;;7.43;;
59263;SDS011;45030;42.720;23.344;2023-05-10T01:02:01;14.40;;;9.55;;
59263;SDS011;45030;42.720;23.344;2023-05-10T01:04:26;13.27;;;9.02;;
59263;SDS011;45030;42.720;23.344;2023-05-10T01:06:52;14.93;;;9.02;;
59263;SDS011;45030;42.720;23.344;2023-05-10T01:09:18;12.60;;;6.65;;
59263;SDS011;45030;42.720;23.344;2023-05-10T01:11:44;13.52;;;9.05;;
59263;SDS011;45030;42.720;23.344;2023-05-10T01:14:09;10.80;;;6.95;;
59263;SDS011;45030;42.720;23.344;2023-05-10T01:16:36;12.60;;;7.43;;
59263;SDS011;45030;42.720;23.344;2023-05-10T01:19:03;10.88;;;7.63;;
59263;SDS011;45030;42.720;23.344;2023-05-10T01:21:42;12.18;;;7.63;;
59263;SDS011;45030;42.720;23.344;2023-05-10T01:32:27;12.25;;;7.90;;
59263;SDS011;45030;42.720;23.344;2023-05-10T01:34:57;13.20;;;7.63;;
59263;SDS011;45030;42.720;23.344;2023-05-10T01:40:35;11.77;;;8.18;;
59263;SDS011;45030;42.720;23.344;2023-05-10T01:43:03;11.30;;;7.55;;
59263;SDS011;45030;42.720;23.344;2023-05-10T01:45:34;10.68;;;7.78;;
59263;SDS011;45030;42.720;23.344;2023-05-10T01:48:04;8.52;;;6.18;;
59263;SDS011;45030;42.720;23.344;2023-05-10T01:50:30;6.95;;;5.30;;
59263;SDS011;45030;42.720;23.344;2023-05-10T01:52:56;7.43;;;4.80;;
59263;SDS011;45030;42.720;23.344;2023-05-10T01:55:23;9.52;;;6.25;;
59263;SDS011;45030;42.720;23.344;2023-05-10T01:57:51;7.45;;;4.47;;
59263;SDS011;45030;42.720;23.344;2023-05-10T02:00:17;8.63;;;6.45;;
59263;SDS011;45030;42.720;23.344;2023-05-10T02:02:45;7.03;;;5.20;;
59263;SDS011;45030;42.720;23.344;2023-05-10T02:05:10;6.25;;;4.15;;
59263;SDS011;45030;42.720;23.344;2023-05-10T02:07:36;6.82;;;5.47;;
59263;SDS011;45030;42.720;23.344;2023-05-10T02:10:02;7.53;;;5.18;;
59263;SDS011;45030;42.720;23.344;2023-05-10T02:12:29;6.90;;;5.70;;
59263;SDS011;45030;42.720;23.344;2023-05-10T02:14:56;7.85;;;6.18;;
59263;SDS011;45030;42.720;23.344;2023-05-10T02:17:22;6.68;;;5.38;;
59263;SDS011;45030;42.720;23.344;2023-05-10T02:19:48;7.22;;;5.60;;
59263;SDS011;45030;42.720;23.344;2023-05-10T02:22:14;6.18;;;5.57;;
59263;SDS011;45030;42.720;23.344;2023-05-10T02:24:40;6.95;;;6.18;;
59263;SDS011;45030;42.720;23.344;2023-05-10T02:27:06;7.18;;;6.00;;
59263;SDS011;45030;42.720;23.344;2023-05-10T02:29:32;7.78;;;6.47;;
59263;SDS011;45030;42.720;23.344;2023-05-10T02:31:57;6.97;;;5.35;;
59263;SDS011;45030;42.720;23.344;2023-05-10T02:34:24;8.70;;;5.38;;
59263;SDS011;45030;42.720;23.344;2023-05-10T02:36:50;5.55;;;4.32;;
59263;SDS011;45030;42.720;23.344;2023-05-10T02:39:16;5.85;;;4.88;;
59263;SDS011;45030;42.720;23.344;2023-05-10T02:41:43;5.95;;;4.80;;
59263;SDS011;45030;42.720;23.344;2023-05-10T02:44:10;10.18;;;4.20;;
59263;SDS011;45030;42.720;23.344;2023-05-10T02:46:35;6.75;;;4.40;;
59263;SDS011;45030;42.720;23.344;2023-05-10T02:49:02;5.05;;;4.43;;
59263;SDS011;45030;42.720;23.344;2023-05-10T02:51:28;4.18;;;3.78;;
59263;SDS011;45030;42.720;23.344;2023-05-10T02:53:56;4.18;;;3.78;;
59263;SDS011;45030;42.720;23.344;2023-05-10T02:56:25;5.22;;;3.80;;
59263;SDS011;45030;42.720;23.344;2023-05-10T02:58:53;3.67;;;3.08;;
59263;SDS011;45030;42.720;23.344;2023-05-10T03:01:18;4.93;;;3.45;;
59263;SDS011;45030;42.720;23.344;2023-05-10T03:03:43;8.32;;;4.65;;
59263;SDS011;45030;42.720;23.344;2023-05-10T03:06:09;4.97;;;3.63;;
59263;SDS011;45030;42.720;23.344;2023-05-10T03:08:34;5.90;;;3.72;;
59263;SDS011;45030;42.720;23.344;2023-05-10T03:16:33;5.03;;;3.65;;
59263;SDS011;45030;42.720;23.344;2023-05-10T03:19:18;7.72;;;4.85;;
59263;SDS011;45030;42.720;23.344;2023-05-10T03:21:49;6.03;;;4.57;;
59263;SDS011;45030;42.720;23.344;2023-05-10T03:24:16;4.53;;;3.65;;
59263;SDS011;45030;42.720;23.344;2023-05-10T03:26:43;6.25;;;4.22;;
59263;SDS011;45030;42.720;23.344;2023-05-10T03:29:08;5.40;;;4.25;;
59263;SDS011;45030;42.720;23.344;2023-05-10T03:31:33;11.07;;;5.13;;
59263;SDS011;45030;42.720;23.344;2023-05-10T03:33:59;6.63;;;4.85;;
59263;SDS011;45030;42.720;23.344;2023-05-10T03:36:24;5.95;;;4.38;;
59263;SDS011;45030;42.720;23.344;2023-05-10T03:38:50;7.43;;;5.15;;
59263;SDS011;45030;42.720;23.344;2023-05-10T03:41:15;4.25;;;3.13;;
59263;SDS011;45030;42.720;23.344;2023-05-10T03:43:40;4.43;;;3.25;;
59263;SDS011;45030;42.720;23.344;2023-05-10T03:46:06;6.60;;;5.07;;
59263;SDS011;45030;42.720;23.344;2023-05-10T03:48:34;4.65;;;3.85;;
59263;SDS011;45030;42.720;23.344;2023-05-10T03:50:59;7.22;;;4.30;;
59263;SDS011;45030;42.720;23.344;2023-05-10T03:53:25;9.38;;;5.43;;
59263;SDS011;45030;42.720;23.344;2023-05-10T03:55:50;5.30;;;4.07;;
59263;SDS011;45030;42.720;23.344;2023-05-10T03:58:15;6.38;;;3.95;;
59263;SDS011;45030;42.720;23.344;2023-05-10T04:00:40;6.55;;;4.55;;
59263;SDS011;45030;42.720;23.344;2023-05-10T04:03:10;5.28;;;3.90;;
59263;SDS011;45030;42.720;23.344;2023-05-10T04:05:35;7.15;;;5.30;;
59263;SDS011;45030;42.720;23.344;2023-05-10T04:08:01;5.95;;;4.93;;
59263;SDS011;45030;42.720;23.344;2023-05-10T04:10:26;6.00;;;4.53;;
59263;SDS011;45030;42.720;23.344;2023-05-10T04:12:51;6.10;;;5.07;;
59263;SDS011;45030;42.720;23.344;2023-05-10T04:15:17;6.55;;;4.32;;
59263;SDS011;45030;42.720;23.344;2023-05-10T04:17:42;5.07;;;3.38;;
59263;SDS011;45030;42.720;23.344;2023-05-10T04:20:07;5.30;;;3.90;;
59263;SDS011;45030;42.720;23.344;2023-05-10T04:22:33;5.10;;;3.70;;
59263;SDS011;45030;42.720;23.344;2023-05-10T04:24:58;6.25;;;3.88;;
59263;SDS011;45030;42.720;23.344;2023-05-10T04:27:23;6.22;;;4.30;;
59263;SDS011;45030;42.720;23.344;2023-05-10T04:29:48;5.38;;;3.83;;
59263;SDS011;45030;42.720;23.344;2023-05-10T04:32:14;5.32;;;3.58;;
59263;SDS011;45030;42.720;23.344;2023-05-10T04:34:41;6.25;;;4.07;;
59263;SDS011;45030;42.720;23.344;2023-05-10T04:37:06;6.78;;;4.47;;
59263;SDS011;45030;42.720;23.344;2023-05-10T04:39:32;4.82;;;3.50;;
59263;SDS011;45030;42.720;23.344;2023-05-10T04:41:57;8.27;;;3.92;;
59263;SDS011;45030;42.720;23.344;2023-05-10T04:44:23;5.78;;;4.28;;
59263;SDS011;45030;42.720;23.344;2023-05-10T04:46:48;4.88;;;3.67;;
59263;SDS011;45030;42.720;23.344;2023-05-10T04:49:13;5.90;;;4.50;;
59263;SDS011;45030;42.720;23.344;2023-05-10T04:51:39;6.10;;;4.78;;
59263;SDS011;45030;42.720;23.344;2023-05-10T04:54:04;7.80;;;4.55;;
59263;SDS011;45030;42.720;23.344;2023-05-10T04:56:30;6.00;;;3.85;;
59263;SDS011;45030;42.720;23.344;2023-05-10T04:58:55;5.45;;;4.03;;
59263;SDS011;45030;42.720;23.344;2023-05-10T05:01:20;5.03;;;3.63;;
59263;SDS011;45030;42.720;23.344;2023-05-10T05:03:45;6.55;;;4.43;;
59263;SDS011;45030;42.720;23.344;2023-05-10T05:06:11;6.13;;;4.68;;
59263;SDS011;45030;42.720;23.344;2023-05-10T05:08:36;7.50;;;4.45;;
59263;SDS011;45030;42.720;23.344;2023-05-10T05:11:01;6.03;;;4.60;;
59263;SDS011;45030;42.720;23.344;2023-05-10T05:13:26;7.47;;;5.00;;
59263;SDS011;45030;42.720;23.344;2023-05-10T05:15:52;8.15;;;5.78;;
59263;SDS011;45030;42.720;23.344;2023-05-10T05:18:17;7.80;;;5.55;;
59263;SDS011;45030;42.720;23.344;2023-05-10T05:20:42;8.35;;;5.68;;
59263;SDS011;45030;42.720;23.344;2023-05-10T05:23:07;6.65;;;5.03;;
59263;SDS011;45030;42.720;23.344;2023-05-10T05:25:33;8.73;;;4.85;;
59263;SDS011;45030;42.720;23.344;2023-05-10T05:27:58;9.10;;;5.13;;
59263;SDS011;45030;42.720;23.344;2023-05-10T05:30:23;5.55;;;4.55;;
59263;SDS011;45030;42.720;23.344;2023-05-10T05:32:48;8.20;;;5.35;;
59263;SDS011;45030;42.720;23.344;2023-05-10T05:35:13;6.40;;;4.50;;
59263;SDS011;45030;42.720;23.344;2023-05-10T05:37:39;8.20;;;5.07;;
59263;SDS011;45030;42.720;23.344;2023-05-10T05:40:04;9.60;;;5.80;;
59263;SDS011;45030;42.720;23.344;2023-05-10T05:42:30;6.28;;;4.65;;
59263;SDS011;45030;42.720;23.344;2023-05-10T05:44:56;15.48;;;6.60;;
59263;SDS011;45030;42.720;23.344;2023-05-10T05:47:21;9.25;;;5.88;;
59263;SDS011;45030;42.720;23.344;2023-05-10T05:49:46;8.02;;;5.53;;
59263;SDS011;45030;42.720;23.344;2023-05-10T05:52:12;9.02;;;5.93;;
59263;SDS011;45030;42.720;23.344;2023-05-10T05:54:37;7.75;;;5.75;;
59263;SDS011;45030;42.720;23.344;2023-05-10T05:57:02;5.85;;;4.53;;
59263;SDS011;45030;42.720;23.344;2023-05-10T05:59:27;7.68;;;5.43;;
59263;SDS011;45030;42.720;23.344;2023-05-10T06:01:53;8.55;;;5.55;;
59263;SDS011;45030;42.720;23.344;2023-05-10T06:04:18;10.63;;;4.68;;
59263;SDS011;45030;42.720;23.344;2023-05-10T06:06:43;7.35;;;5.60;;
59263;SDS011;45030;42.720;23.344;2023-05-10T06:09:09;6.60;;;5.13;;
59263;SDS011;45030;42.720;23.344;2023-05-10T06:11:34;6.25;;;4.65;;
59263;SDS011;45030;42.720;23.344;2023-05-10T06:14:00;8.20;;;5.07;;
59263;SDS011;45030;42.720;23.344;2023-05-10T06:16:26;7.82;;;4.68;;
59263;SDS011;45030;42.720;23.344;2023-05-10T06:18:51;6.55;;;4.53;;
59263;SDS011;45030;42.720;23.344;2023-05-10T06:21:16;5.85;;;4.22;;
59263;SDS011;45030;42.720;23.344;2023-05-10T06:23:41;8.98;;;5.80;;
59263;SDS011;45030;42.720;23.344;2023-05-10T06:26:07;9.23;;;5.82;;
59263;SDS011;45030;42.720;23.344;2023-05-10T06:28:32;7.63;;;5.38;;
59263;SDS011;45030;42.720;23.344;2023-05-10T06:30:58;6.20;;;3.90;;
59263;SDS011;45030;42.720;23.344;2023-05-10T06:33:23;4.47;;;3.90;;
59263;SDS011;45030;42.720;23.344;2023-05-10T06:35:49;7.88;;;5.65;;
59263;SDS011;45030;42.720;23.344;2023-05-10T06:38:14;8.30;;;5.78;;
59263;SDS011;45030;42.720;23.344;2023-05-10T06:40:42;7.55;;;5.35;;
59263;SDS011;45030;42.720;23.344;2023-05-10T06:43:08;7.72;;;5.28;;
59263;SDS011;45030;42.720;23.344;2023-05-10T06:45:33;5.95;;;4.25;;
59263;SDS011;45030;42.720;23.344;2023-05-10T06:47:58;9.82;;;4.32;;
59263;SDS011;45030;42.720;23.344;2023-05-10T06:50:23;7.90;;;5.55;;
59263;SDS011;45030;42.720;23.344;2023-05-10T06:52:49;5.63;;;3.85;;
59263;SDS011;45030;42.720;23.344;2023-05-10T06:55:14;4.93;;;4.30;;
59263;SDS011;45030;42.720;23.344;2023-05-10T06:57:40;5.40;;;3.95;;
59263;SDS011;45030;42.720;23.344;2023-05-10T07:00:05;6.35;;;4.53;;
59263;SDS011;45030;42.720;23.344;2023-05-10T07:02:30;8.10;;;4.00;;
59263;SDS011;45030;42.720;23.344;2023-05-10T07:04:56;6.75;;;4.57;;
59263;SDS011;45030;42.720;23.344;2023-05-10T07:07:21;4.07;;;3.67;;
59263;SDS011;45030;42.720;23.344;2023-05-10T07:09:46;6.60;;;4.57;;
59263;SDS011;45030;42.720;23.344;2023-05-10T07:12:12;7.10;;;4.53;;
59263;SDS011;45030;42.720;23.344;2023-05-10T07:14:37;7.03;;;4.95;;
59263;SDS011;45030;42.720;23.344;2023-05-10T07:17:02;7.60;;;4.97;;
59263;SDS011;45030;42.720;23.344;2023-05-10T07:19:27;4.80;;;3.78;;
59263;SDS011;45030;42.720;23.344;2023-05-10T07:21:54;9.55;;;4.38;;
59263;SDS011;45030;42.720;23.344;2023-05-10T07:24:20;5.28;;;3.60;;
59263;SDS011;45030;42.720;23.344;2023-05-10T07:26:45;5.28;;;3.55;;
59263;SDS011;45030;42.720;23.344;2023-05-10T07:29:10;5.32;;;3.47;;
59263;SDS011;45030;42.720;23.344;2023-05-10T07:31:35;6.45;;;4.30;;
59263;SDS011;45030;42.720;23.344;2023-05-10T07:34:01;5.35;;;4.05;;
59263;SDS011;45030;42.720;23.344;2023-05-10T07:36:26;5.47;;;4.18;;
59263;SDS011;45030;42.720;23.344;2023-05-10T07:38:51;4.68;;;3.58;;
59263;SDS011;45030;42.720;23.344;2023-05-10T07:41:16;5.65;;;5.05;;
59263;SDS011;45030;42.720;23.344;2023-05-10T07:43:42;5.93;;;4.18;;
59263;SDS011;45030;42.720;23.344;2023-05-10T07:46:07;5.90;;;3.70;;
59263;SDS011;45030;42.720;23.344;2023-05-10T07:48:34;4.65;;;4.03;;
59263;SDS011;45030;42.720;23.344;2023-05-10T07:51:00;5.60;;;4.38;;
59263;SDS011;45030;42.720;23.344;2023-05-10T07:53:26;6.85;;;5.13;;
59263;SDS011;45030;42.720;23.344;2023-05-10T07:55:51;8.18;;;4.65;;
59263;SDS011;45030;42.720;23.344;2023-05-10T07:58:19;6.60;;;3.92;;
59263;SDS011;45030;42.720;23.344;2023-05-10T08:00:44;3.80;;;2.60;;
59263;SDS011;45030;42.720;23.344;2023-05-10T08:03:09;7.00;;;4.25;;
59263;SDS011;45030;42.720;23.344;2023-05-10T08:05:35;6.22;;;4.32;;
59263;SDS011;45030;42.720;23.344;2023-05-10T08:08:00;6.70;;;4.82;;
59263;SDS011;45030;42.720;23.344;2023-05-10T08:10:25;9.48;;;4.55;;
59263;SDS011;45030;42.720;23.344;2023-05-10T08:12:51;6.70;;;3.53;;
59263;SDS011;45030;42.720;23.344;2023-05-10T08:15:16;9.50;;;4.25;;
59263;SDS011;45030;42.720;23.344;2023-05-10T08:17:41;7.22;;;4.88;;
59263;SDS011;45030;42.720;23.344;2023-05-10T08:20:08;6.22;;;4.10;;
59263;SDS011;45030;42.720;23.344;2023-05-10T08:22:33;7.75;;;4.85;;
59263;SDS011;45030;42.720;23.344;2023-05-10T08:24:58;5.20;;;4.70;;
59263;SDS011;45030;42.720;23.344;2023-05-10T08:27:23;6.70;;;5.00;;
59263;SDS011;45030;42.720;23.344;2023-05-10T08:29:49;8.18;;;5.22;;
59263;SDS011;45030;42.720;23.344;2023-05-10T08:32:14;7.55;;;5.32;;
59263;SDS011;45030;42.720;23.344;2023-05-10T08:34:39;9.57;;;5.68;;
59263;SDS011;45030;42.720;23.344;2023-05-10T08:37:04;9.52;;;5.68;;
59263;SDS011;45030;42.720;23.344;2023-05-10T08:39:33;6.18;;;4.80;;
59263;SDS011;45030;42.720;23.344;2023-05-10T08:41:59;8.70;;;5.40;;
59263;SDS011;45030;42.720;23.344;2023-05-10T08:44:26;6.25;;;4.72;;
59263;SDS011;45030;42.720;23.344;2023-05-10T08:46:51;7.07;;;5.15;;
59263;SDS011;45030;42.720;23.344;2023-05-10T08:49:18;8.05;;;6.18;;
59263;SDS011;45030;42.720;23.344;2023-05-10T08:51:49;8.98;;;5.00;;
59263;SDS011;45030;42.720;23.344;2023-05-10T08:54:15;6.00;;;4.93;;
59263;SDS011;45030;42.720;23.344;2023-05-10T08:56:40;7.15;;;5.55;;
59263;SDS011;45030;42.720;23.344;2023-05-10T08:59:05;9.75;;;6.05;;
59263;SDS011;45030;42.720;23.344;2023-05-10T09:01:31;7.90;;;4.93;;
59263;SDS011;45030;42.720;23.344;2023-05-10T09:03:56;11.55;;;5.63;;
59263;SDS011;45030;42.720;23.344;2023-05-10T09:06:22;18.75;;;5.70;;
59263;SDS011;45030;42.720;23.344;2023-05-10T09:08:48;6.22;;;4.50;;
59263;SDS011;45030;42.720;23.344;2023-05-10T09:11:13;9.13;;;6.10;;
59263;SDS011;45030;42.720;23.344;2023-05-10T09:13:39;4.70;;;3.80;;
59263;SDS011;45030;42.720;23.344;2023-05-10T09:16:04;8.32;;;4.97;;
59263;SDS011;45030;42.720;23.344;2023-05-10T09:18:29;8.07;;;6.18;;
59263;SDS011;45030;42.720;23.344;2023-05-10T09:20:55;9.13;;;5.05;;
59263;SDS011;45030;42.720;23.344;2023-05-10T09:23:21;9.60;;;6.30;;
59263;SDS011;45030;42.720;23.344;2023-05-10T09:25:46;8.65;;;5.90;;
59263;SDS011;45030;42.720;23.344;2023-05-10T09:28:11;12.23;;;8.35;;
59263;SDS011;45030;42.720;23.344;2023-05-10T09:30:37;7.95;;;6.80;;
59263;SDS011;45030;42.720;23.344;2023-05-10T09:33:02;9.27;;;5.20;;
59263;SDS011;45030;42.720;23.344;2023-05-10T09:35:28;11.27;;;7.28;;
59263;SDS011;45030;42.720;23.344;2023-05-10T09:37:54;13.25;;;7.95;;
59263;SDS011;45030;42.720;23.344;2023-05-10T09:40:23;10.68;;;7.97;;
59263;SDS011;45030;42.720;23.344;2023-05-10T09:42:56;8.18;;;5.88;;
59263;SDS011;45030;42.720;23.344;2023-05-10T09:45:22;8.80;;;5.90;;
59263;SDS011;45030;42.720;23.344;2023-05-10T09:47:47;7.20;;;5.88;;
59263;SDS011;45030;42.720;23.344;2023-05-10T09:50:13;7.18;;;5.70;;
59263;SDS011;45030;42.720;23.344;2023-05-10T09:52:57;5.25;;;4.43;;
59263;SDS011;45030;42.720;23.344;2023-05-10T09:55:37;5.53;;;3.97;;
59263;SDS011;45030;42.720;23.344;2023-05-10T09:58:02;5.57;;;4.78;;
59263;SDS011;45030;42.720;23.344;2023-05-10T10:00:33;6.28;;;5.63;;
59263;SDS011;45030;42.720;23.344;2023-05-10T10:02:59;9.35;;;5.55;;
59263;SDS011;45030;42.720;23.344;2023-05-10T10:05:31;10.55;;;5.30;;
59263;SDS011;45030;42.720;23.344;2023-05-10T10:07:57;5.25;;;3.53;;
59263;SDS011;45030;42.720;23.344;2023-05-10T10:10:23;6.55;;;4.43;;
59263;SDS011;45030;42.720;23.344;2023-05-10T10:12:49;9.95;;;5.05;;
59263;SDS011;45030;42.720;23.344;2023-05-10T10:15:14;4.50;;;2.58;;
59263;SDS011;45030;42.720;23.344;2023-05-10T10:17:40;8.07;;;4.07;;
59263;SDS011;45030;42.720;23.344;2023-05-10T10:20:06;5.50;;;3.80;;
59263;SDS011;45030;42.720;23.344;2023-05-10T10:22:31;7.47;;;5.05;;
59263;SDS011;45030;42.720;23.344;2023-05-10T10:24:56;5.43;;;3.83;;
59263;SDS011;45030;42.720;23.344;2023-05-10T10:27:26;7.10;;;4.88;;
59263;SDS011;45030;42.720;23.344;2023-05-10T10:32:24;6.20;;;3.70;;
59263;SDS011;45030;42.720;23.344;2023-05-10T10:34:50;6.63;;;4.22;;
59263;SDS011;45030;42.720;23.344;2023-05-10T10:37:15;5.03;;;3.53;;
59263;SDS011;45030;42.720;23.344;2023-05-10T10:39:41;4.40;;;4.00;;
59263;SDS011;45030;42.720;23.344;2023-05-10T10:42:06;4.55;;;3.35;;
59263;SDS011;45030;42.720;23.344;2023-05-10T10:49:33;8.98;;;2.90;;
59263;SDS011;45030;42.720;23.344;2023-05-10T10:52:15;6.57;;;4.22;;
59263;SDS011;45030;42.720;23.344;2023-05-10T10:57:18;5.60;;;4.05;;
59263;SDS011;45030;42.720;23.344;2023-05-10T10:59:43;5.15;;;3.78;;
59263;SDS011;45030;42.720;23.344;2023-05-10T11:02:09;4.03;;;3.00;;
59263;SDS011;45030;42.720;23.344;2023-05-10T11:10:40;5.07;;;4.03;;
59263;SDS011;45030;42.720;23.344;2023-05-10T11:13:13;2.63;;;2.30;;
59263;SDS011;45030;42.720;23.344;2023-05-10T11:15:39;4.72;;;3.70;;
59263;SDS011;45030;42.720;23.344;2023-05-10T11:20:42;7.50;;;3.42;;
59263;SDS011;45030;42.720;23.344;2023-05-10T11:23:11;4.88;;;2.72;;
59263;SDS011;45030;42.720;23.344;2023-05-10T11:25:41;5.97;;;4.65;;
59263;SDS011;45030;42.720;23.344;2023-05-10T11:28:07;4.95;;;3.13;;
59263;SDS011;45030;42.720;23.344;2023-05-10T11:30:32;5.80;;;3.97;;
59263;SDS011;45030;42.720;23.344;2023-05-10T11:32:58;7.40;;;3.97;;
59263;SDS011;45030;42.720;23.344;2023-05-10T11:35:23;6.55;;;4.88;;
59263;SDS011;45030;42.720;23.344;2023-05-10T11:37:48;6.75;;;3.83;;
59263;SDS011;45030;42.720;23.344;2023-05-10T11:40:15;6.13;;;3.72;;
59263;SDS011;45030;42.720;23.344;2023-05-10T11:42:40;5.18;;;3.72;;
59263;SDS011;45030;42.720;23.344;2023-05-10T11:45:06;8.25;;;3.85;;
59263;SDS011;45030;42.720;23.344;2023-05-10T11:47:31;4.32;;;3.13;;
59263;SDS011;45030;42.720;23.344;2023-05-10T11:49:57;5.38;;;2.88;;
59263;SDS011;45030;42.720;23.344;2023-05-10T11:52:22;4.90;;;3.45;;
59263;SDS011;45030;42.720;23.344;2023-05-10T11:54:51;5.03;;;4.03;;
59263;SDS011;45030;42.720;23.344;2023-05-10T11:57:18;4.30;;;3.53;;
59263;SDS011;45030;42.720;23.344;2023-05-10T11:59:43;4.97;;;4.32;;
59263;SDS011;45030;42.720;23.344;2023-05-10T12:02:09;3.53;;;2.83;;
59263;SDS011;45030;42.720;23.344;2023-05-10T12:04:34;7.53;;;5.10;;
59263;SDS011;45030;42.720;23.344;2023-05-10T12:07:00;6.63;;;4.95;;
59263;SDS011;45030;42.720;23.344;2023-05-10T12:09:25;4.57;;;3.40;;
59263;SDS011;45030;42.720;23.344;2023-05-10T12:11:51;6.35;;;3.70;;
59263;SDS011;45030;42.720;23.344;2023-05-10T12:14:20;7.22;;;3.65;;
59263;SDS011;45030;42.720;23.344;2023-05-10T12:16:46;8.10;;;3.83;;
59263;SDS011;45030;42.720;23.344;2023-05-10T12:19:12;6.47;;;4.78;;
59263;SDS011;45030;42.720;23.344;2023-05-10T12:21:37;4.40;;;3.25;;
59263;SDS011;45030;42.720;23.344;2023-05-10T12:24:03;7.13;;;3.83;;
59263;SDS011;45030;42.720;23.344;2023-05-10T12:26:30;4.68;;;2.75;;
59263;SDS011;45030;42.720;23.344;2023-05-10T12:29:11;8.38;;;3.67;;
59263;SDS011;45030;42.720;23.344;2023-05-10T12:31:51;4.25;;;2.95;;
59263;SDS011;45030;42.720;23.344;2023-05-10T12:34:26;8.02;;;4.60;;
59263;SDS011;45030;42.720;23.344;2023-05-10T12:36:52;4.43;;;3.10;;
59263;SDS011;45030;42.720;23.344;2023-05-10T12:39:17;6.75;;;3.80;;
59263;SDS011;45030;42.720;23.344;2023-05-10T12:41:42;8.40;;;5.03;;
59263;SDS011;45030;42.720;23.344;2023-05-10T12:44:08;5.07;;;3.83;;
59263;SDS011;45030;42.720;23.344;2023-05-10T12:46:33;5.43;;;2.90;;
59263;SDS011;45030;42.720;23.344;2023-05-10T12:48:59;7.68;;;4.75;;
59263;SDS011;45030;42.720;23.344;2023-05-10T12:51:25;4.25;;;3.05;;
59263;SDS011;45030;42.720;23.344;2023-05-10T12:53:50;6.63;;;3.75;;
59263;SDS011;45030;42.720;23.344;2023-05-10T12:56:15;6.60;;;4.20;;
59263;SDS011;45030;42.720;23.344;2023-05-10T12:58:40;5.25;;;3.42;;
59263;SDS011;45030;42.720;23.344;2023-05-10T13:01:06;4.53;;;3.05;;
59263;SDS011;45030;42.720;23.344;2023-05-10T13:03:31;4.40;;;3.50;;
59263;SDS011;45030;42.720;23.344;2023-05-10T13:05:57;4.70;;;3.03;;
59263;SDS011;45030;42.720;23.344;2023-05-10T13:08:22;5.05;;;3.00;;
59263;SDS011;45030;42.720;23.344;2023-05-10T13:10:47;6.18;;;4.55;;
59263;SDS011;45030;42.720;23.344;2023-05-10T13:13:13;8.40;;;4.40;;
59263;SDS011;45030;42.720;23.344;2023-05-10T13:15:39;4.35;;;3.15;;
59263;SDS011;45030;42.720;23.344;2023-05-10T13:18:04;11.23;;;4.85;;
59263;SDS011;45030;42.720;23.344;2023-05-10T13:20:29;5.50;;;3.45;;
59263;SDS011;45030;42.720;23.344;2023-05-10T13:22:55;7.25;;;3.00;;
59263;SDS011;45030;42.720;23.344;2023-05-10T13:25:20;3.72;;;2.58;;
59263;SDS011;45030;42.720;23.344;2023-05-10T13:27:45;4.65;;;2.70;;
59263;SDS011;45030;42.720;23.344;2023-05-10T13:30:11;4.55;;;3.13;;
59263;SDS011;45030;42.720;23.344;2023-05-10T13:32:36;7.75;;;5.07;;
59263;SDS011;45030;42.720;23.344;2023-05-10T13:35:01;8.02;;;5.50;;
59263;SDS011;45030;42.720;23.344;2023-05-10T13:37:28;4.35;;;2.92;;
59263;SDS011;45030;42.720;23.344;2023-05-10T13:39:54;6.18;;;3.70;;
59263;SDS011;45030;42.720;23.344;2023-05-10T13:42:19;5.95;;;4.22;;
59263;SDS011;45030;42.720;23.344;2023-05-10T13:44:45;6.22;;;3.80;;
59263;SDS011;45030;42.720;23.344;2023-05-10T13:47:10;5.45;;;3.42;;
59263;SDS011;45030;42.720;23.344;2023-05-10T13:49:36;3.70;;;2.28;;
59263;SDS011;45030;42.720;23.344;2023-05-10T13:52:01;5.88;;;3.03;;
59263;SDS011;45030;42.720;23.344;2023-05-10T13:54:32;6.32;;;3.10;;
59263;SDS011;45030;42.720;23.344;2023-05-10T13:56:57;5.18;;;3.63;;
59263;SDS011;45030;42.720;23.344;2023-05-10T13:59:22;7.25;;;4.55;;
59263;SDS011;45030;42.720;23.344;2023-05-10T14:01:48;6.80;;;3.95;;
59263;SDS011;45030;42.720;23.344;2023-05-10T14:04:13;5.30;;;2.60;;
59263;SDS011;45030;42.720;23.344;2023-05-10T14:06:38;6.75;;;4.28;;
59263;SDS011;45030;42.720;23.344;2023-05-10T14:09:04;4.18;;;3.05;;
59263;SDS011;45030;42.720;23.344;2023-05-10T14:11:31;2.78;;;2.42;;
59263;SDS011;45030;42.720;23.344;2023-05-10T14:13:57;8.23;;;4.45;;
59263;SDS011;45030;42.720;23.344;2023-05-10T14:16:22;5.18;;;3.70;;
59263;SDS011;45030;42.720;23.344;2023-05-10T14:18:47;4.82;;;3.35;;
59263;SDS011;45030;42.720;23.344;2023-05-10T14:21:14;7.45;;;4.45;;
59263;SDS011;45030;42.720;23.344;2023-05-10T14:23:40;8.05;;;5.43;;
59263;SDS011;45030;42.720;23.344;2023-05-10T14:26:05;11.10;;;6.85;;
59263;SDS011;45030;42.720;23.344;2023-05-10T14:28:31;5.63;;;4.22;;
59263;SDS011;45030;42.720;23.344;2023-05-10T14:30:56;7.13;;;4.68;;
59263;SDS011;45030;42.720;23.344;2023-05-10T14:33:22;5.40;;;2.97;;
59263;SDS011;45030;42.720;23.344;2023-05-10T14:35:47;3.70;;;2.67;;
59263;SDS011;45030;42.720;23.344;2023-05-10T14:38:13;9.63;;;5.00;;
59263;SDS011;45030;42.720;23.344;2023-05-10T14:40:38;5.78;;;3.13;;
59263;SDS011;45030;42.720;23.344;2023-05-10T14:43:03;4.78;;;3.55;;
59263;SDS011;45030;42.720;23.344;2023-05-10T14:45:29;5.90;;;4.13;;
59263;SDS011;45030;42.720;23.344;2023-05-10T14:47:54;4.88;;;3.65;;
59263;SDS011;45030;42.720;23.344;2023-05-10T14:50:19;3.92;;;3.08;;
59263;SDS011;45030;42.720;23.344;2023-05-10T14:55:47;5.20;;;3.67;;
59263;SDS011;45030;42.720;23.344;2023-05-10T14:58:13;9.93;;;5.82;;
59263;SDS011;45030;42.720;23.344;2023-05-10T15:00:38;3.88;;;2.75;;
59263;SDS011;45030;42.720;23.344;2023-05-10T15:03:03;4.05;;;2.47;;
59263;SDS011;45030;42.720;23.344;2023-05-10T15:05:28;5.78;;;3.45;;